Portada
METAR-TAF:

METAR-TAF

Aeropuertos :

Spencer Municipal Airport

Spencer, Iowa, Estados Unidos

latitud: 43-09-56N, longitud: 095-12-10W, altitud: 408 m

Observación

El informe se hizo hace 42 minutos, a las 05:53 UTC
Viento 3 kt del noroeste
Temperatura 13°C
Humedad 82%
Presión 1025 hPa
Visibilidad: 16.1 km
Cielo despejado

METAR: KSPW 310553Z AUTO 32003KT 10SM CLR 13/10 A3026 RMK AO2 SLP244 T01330100 10239 20133 402440100 51010

Hora: 01:35 (06:35 UTC)


TAF: falta

Observaciones y pronósticos meteorológicos de más de 4000 aeropuertos (mensajes METAR y TAF).

Los puntos amarillos y rojos representan las estaciones disponibles.

Ponga el ratón en el punto deseado para ver el nombre de la estación.

Haga clic para ver las observaciones y los pronósticos meteorológicos.

Para cambiar el mapa : haga clic en los botones verdes con una cruz de color negro para hacer un zoom, en el botón verde con un guión para alejar o en las flechas verdes para mapas adyacentes.


METAR-TAF: